Main page
METAR-TAF:

METAR-TAF

Airports :

Zvartnots International Airport

Yerevan, Armenia

latitude: 40-08-50N, longitude: 044-23-45E, elevation: 865 m

Current weather observation

The report was made 31 minutes ago, at 03:30 UTC
Wind 1 kt from variable directions
Temperature 1°C
Humidity 75%
Pressure 1022 hPa
Visibility 10 km or more

METAR: UDYZ 230330Z VRB01KT 9999 NSC 01/M03 Q1022 R09/010070 NOSIG

Time: 08:01 (04:01 UTC)

Forecast

The report was made 4 hours and 58 minutes ago, at 23:03 UTC
Forecast valid from 23 at 00 UTC to 23 at 24 UTC
Wind 4 kt from the South/Southeast
Visibility 10 km or more
no clouds below 1500 m and no cumulonimbus

TAF: UDYZ 222303Z 2300/2324 16004KT CAVOK

Weather observations and forecasts of more than 4000 airports (METAR and TAF reports).

The available stations are represented by yellow and red dots on the map.

Hover mouse over dot to see the name of the station.

Then click to see weather observations and forecasts.

To change the map : click on the green buttons with a black cross to zoom in, on the green button with a dash to zoom out, or on the green arrows for adjacent maps.


METAR-TAF: